Ringsted, IA (50578)

5:50 PM CDT on July 11, 2014 (GMT -0500)
Algona Municipal (KAXA) Elev 1220 ft | 43.08 °N, 94.27 °W | Change Station

Current weather conditions updated 15 minutes ago

Overcast
Overcast
79 °F
Feels Like 79 °F
N
8
Wind Variable Wind from South

Tomorrow is forecast to be Cooler than today. Rain and thunder.

Today
High -- | Low -- °F
--% Chance of Precip.
Yesterday
High -- | Low -- °F
Precip. -- in
5:47 AM 8:57 PM
Full, 100% visible
Pressure 30.00 in
Visibility 10.0 miles
Clouds Overcast 2600 ft
Dew Point 70 °F
Humidity 74%
Rainfall 0.00 in
Snow Depth Not available.
UV 1 out of 12
Pollen .50 out of 12
Air Quality Not available.
Flu Activity Sporadic
METAR KAXA 112235Z AUTO 19007KT 10SM OVC026 26/21 A3000 RMK AO2

More Conditions Fewer Conditions

Pressure 30.00 in
Visibility 10.0 miles
Clouds Overcast 2600 ft
Dew Point 70 °F
Humidity 74%
Rainfall 0.00 in
Snow Depth Not available.
UV 1 out of 12
Pollen .50 out of 12
Air Quality Not available.
Flu Activity Sporadic
METAR KAXA 112235Z AUTO 19007KT 10SM OVC026 26/21 A3000 RMK AO2

More Conditions Fewer Conditions

10-Day Weather Forecast

Almanac

Astronomy

Jul. 11, 2014 Rise Set
Actual Time 5:47 AM CDT 8:57 PM CDT
Civil Twilight 5:13 AM CDT 9:32 PM CDT
Nautical Twilight 4:28 AM CDT 10:16 PM CDT
Astronomical Twilight 3:34 AM CDT 11:10 PM CDT
Moon 8:06 PM CDT 5:02 AM CDT
Length of Visible Light 16h 19m
Length of Day
15h 09m
Tomorrow will be 1m 20s shorter.
Full, 100% of the Moon is Illuminated
Today
Full
Jul 12
Full
Jul 18
Last Quarter
Jul 26
New
Aug 3
First Quarter

Today's Extremes

State Highs State Lows

Community

WunderPhotos

Upload Photos

1,732,583 photos uploaded!

WunderBlogs® & News

Nearby

Snow Depth

Station Depth Elevation
No new snow has been reported.

Earthquake Activity

City Distance Mag. Time & Date
No recent earthquake activity has been reported nearby.
Minimum magnitude displayed is 2.5.

Coastal Water Temperatures

Place Temperature
No Stations Reporting

Nearby Weather Stations

Station Location Temp. Heat Index Dew Point Humidity Wind Precip. Elev Updated Type
Farm Acreage, Bode, IA 77.6 °F 80 °F 70 °F 77% SW  at  5.0 mph 0.00 in / hr 1130 ft 5:46 PM CDT Normal

Show More Stations Show Fewer Stations